sensor_id;sensor_type;location;lat;lon;timestamp;temperature;humidity
19152;DHT22;9708;53.114;9.388;2024-01-30T00:00:07;2.00;99.90
19152;DHT22;9708;53.114;9.388;2024-01-30T00:02:34;2.00;99.90
19152;DHT22;9708;53.114;9.388;2024-01-30T00:05:01;2.00;99.90
19152;DHT22;9708;53.114;9.388;2024-01-30T00:07:30;2.00;99.90
19152;DHT22;9708;53.114;9.388;2024-01-30T00:09:57;2.10;99.90
19152;DHT22;9708;53.114;9.388;2024-01-30T00:12:24;2.10;99.90
19152;DHT22;9708;53.114;9.388;2024-01-30T00:14:52;2.10;99.90
19152;DHT22;9708;53.114;9.388;2024-01-30T00:17:19;2.10;99.90
19152;DHT22;9708;53.114;9.388;2024-01-30T00:19:46;2.00;99.90
19152;DHT22;9708;53.114;9.388;2024-01-30T00:22:13;2.00;99.90
19152;DHT22;9708;53.114;9.388;2024-01-30T00:24:41;2.00;99.90
19152;DHT22;9708;53.114;9.388;2024-01-30T00:27:08;2.00;99.90
19152;DHT22;9708;53.114;9.388;2024-01-30T00:29:35;2.00;99.90
19152;DHT22;9708;53.114;9.388;2024-01-30T00:32:02;2.00;99.90
19152;DHT22;9708;53.114;9.388;2024-01-30T00:34:29;2.00;99.90
19152;DHT22;9708;53.114;9.388;2024-01-30T00:36:55;2.00;99.90
19152;DHT22;9708;53.114;9.388;2024-01-30T00:39:22;1.90;99.90
19152;DHT22;9708;53.114;9.388;2024-01-30T00:41:51;2.00;99.90
19152;DHT22;9708;53.114;9.388;2024-01-30T00:44:17;1.90;99.90
19152;DHT22;9708;53.114;9.388;2024-01-30T00:46:44;1.80;99.90
19152;DHT22;9708;53.114;9.388;2024-01-30T00:49:11;1.80;99.90
19152;DHT22;9708;53.114;9.388;2024-01-30T00:51:38;1.80;99.90
19152;DHT22;9708;53.114;9.388;2024-01-30T00:54:05;1.70;99.90
19152;DHT22;9708;53.114;9.388;2024-01-30T00:56:33;1.70;99.90
19152;DHT22;9708;53.114;9.388;2024-01-30T00:59:01;1.70;99.90
19152;DHT22;9708;53.114;9.388;2024-01-30T01:01:28;1.70;99.90
19152;DHT22;9708;53.114;9.388;2024-01-30T01:03:55;1.70;99.90
19152;DHT22;9708;53.114;9.388;2024-01-30T01:06:23;1.80;99.90
19152;DHT22;9708;53.114;9.388;2024-01-30T01:08:50;1.70;99.90
19152;DHT22;9708;53.114;9.388;2024-01-30T01:11:17;1.70;99.90
19152;DHT22;9708;53.114;9.388;2024-01-30T01:13:44;1.70;99.90
19152;DHT22;9708;53.114;9.388;2024-01-30T01:16:12;1.70;99.90
19152;DHT22;9708;53.114;9.388;2024-01-30T01:18:39;1.70;99.90
19152;DHT22;9708;53.114;9.388;2024-01-30T01:21:06;1.70;99.90
19152;DHT22;9708;53.114;9.388;2024-01-30T01:23:33;1.70;99.90
19152;DHT22;9708;53.114;9.388;2024-01-30T01:26:00;1.70;99.90
19152;DHT22;9708;53.114;9.388;2024-01-30T01:28:26;1.70;99.90
19152;DHT22;9708;53.114;9.388;2024-01-30T01:30:53;1.70;99.90
19152;DHT22;9708;53.114;9.388;2024-01-30T01:33:25;1.70;99.90
19152;DHT22;9708;53.114;9.388;2024-01-30T01:35:52;1.70;99.90
19152;DHT22;9708;53.114;9.388;2024-01-30T01:38:19;1.80;99.90
19152;DHT22;9708;53.114;9.388;2024-01-30T01:40:46;1.70;99.90
19152;DHT22;9708;53.114;9.388;2024-01-30T01:43:13;1.70;99.90
19152;DHT22;9708;53.114;9.388;2024-01-30T01:45:40;1.80;99.90
19152;DHT22;9708;53.114;9.388;2024-01-30T01:48:07;1.70;99.90
19152;DHT22;9708;53.114;9.388;2024-01-30T01:50:36;1.70;99.90
19152;DHT22;9708;53.114;9.388;2024-01-30T01:53:04;1.70;99.90
19152;DHT22;9708;53.114;9.388;2024-01-30T01:55:31;1.80;99.90
19152;DHT22;9708;53.114;9.388;2024-01-30T01:57:59;1.70;99.90
19152;DHT22;9708;53.114;9.388;2024-01-30T02:00:26;1.80;99.90
19152;DHT22;9708;53.114;9.388;2024-01-30T02:02:54;1.80;99.90
19152;DHT22;9708;53.114;9.388;2024-01-30T02:05:21;1.90;99.90
19152;DHT22;9708;53.114;9.388;2024-01-30T02:07:52;2.10;99.90
19152;DHT22;9708;53.114;9.388;2024-01-30T02:10:19;2.10;99.90
19152;DHT22;9708;53.114;9.388;2024-01-30T02:12:45;2.10;99.90
19152;DHT22;9708;53.114;9.388;2024-01-30T02:15:13;2.10;99.90
19152;DHT22;9708;53.114;9.388;2024-01-30T02:17:40;2.10;99.90
19152;DHT22;9708;53.114;9.388;2024-01-30T02:20:08;2.10;99.90
19152;DHT22;9708;53.114;9.388;2024-01-30T02:22:37;2.00;99.90
19152;DHT22;9708;53.114;9.388;2024-01-30T02:25:05;1.90;99.90
19152;DHT22;9708;53.114;9.388;2024-01-30T02:27:32;2.00;99.90
19152;DHT22;9708;53.114;9.388;2024-01-30T02:29:59;2.00;99.90
19152;DHT22;9708;53.114;9.388;2024-01-30T02:32:26;2.00;99.90
19152;DHT22;9708;53.114;9.388;2024-01-30T02:34:53;2.20;99.90
19152;DHT22;9708;53.114;9.388;2024-01-30T02:37:19;2.10;99.90
19152;DHT22;9708;53.114;9.388;2024-01-30T02:39:48;2.00;99.90
19152;DHT22;9708;53.114;9.388;2024-01-30T02:42:15;2.00;99.90
19152;DHT22;9708;53.114;9.388;2024-01-30T02:44:41;1.90;99.90
19152;DHT22;9708;53.114;9.388;2024-01-30T02:47:08;1.90;99.90
19152;DHT22;9708;53.114;9.388;2024-01-30T02:49:35;1.90;99.90
19152;DHT22;9708;53.114;9.388;2024-01-30T02:52:03;1.80;99.90
19152;DHT22;9708;53.114;9.388;2024-01-30T02:54:30;1.90;99.90
19152;DHT22;9708;53.114;9.388;2024-01-30T02:56:58;1.80;99.90
19152;DHT22;9708;53.114;9.388;2024-01-30T02:59:25;1.80;99.90
19152;DHT22;9708;53.114;9.388;2024-01-30T03:01:52;1.70;99.90
19152;DHT22;9708;53.114;9.388;2024-01-30T03:04:19;1.80;99.90
19152;DHT22;9708;53.114;9.388;2024-01-30T03:06:46;1.80;99.90
19152;DHT22;9708;53.114;9.388;2024-01-30T03:09:15;1.70;99.90
19152;DHT22;9708;53.114;9.388;2024-01-30T03:11:42;1.70;99.90
19152;DHT22;9708;53.114;9.388;2024-01-30T03:14:10;1.60;99.90
19152;DHT22;9708;53.114;9.388;2024-01-30T03:16:37;1.70;99.90
19152;DHT22;9708;53.114;9.388;2024-01-30T03:19:06;1.60;99.90
19152;DHT22;9708;53.114;9.388;2024-01-30T03:21:34;1.80;99.90
19152;DHT22;9708;53.114;9.388;2024-01-30T03:24:01;2.50;99.90
19152;DHT22;9708;53.114;9.388;2024-01-30T03:26:28;3.30;99.90
19152;DHT22;9708;53.114;9.388;2024-01-30T03:28:55;3.80;99.90
19152;DHT22;9708;53.114;9.388;2024-01-30T03:31:23;4.00;99.90
19152;DHT22;9708;53.114;9.388;2024-01-30T03:33:50;4.00;99.90
19152;DHT22;9708;53.114;9.388;2024-01-30T03:36:17;3.90;99.90
19152;DHT22;9708;53.114;9.388;2024-01-30T03:38:44;3.70;99.90
19152;DHT22;9708;53.114;9.388;2024-01-30T03:41:11;3.80;99.90
19152;DHT22;9708;53.114;9.388;2024-01-30T03:43:38;3.90;99.90
19152;DHT22;9708;53.114;9.388;2024-01-30T03:46:04;3.90;99.90
19152;DHT22;9708;53.114;9.388;2024-01-30T03:48:33;4.30;99.90
19152;DHT22;9708;53.114;9.388;2024-01-30T03:51:00;4.30;99.90
19152;DHT22;9708;53.114;9.388;2024-01-30T03:53:27;4.50;99.90
19152;DHT22;9708;53.114;9.388;2024-01-30T03:55:53;4.60;99.90
19152;DHT22;9708;53.114;9.388;2024-01-30T03:58:20;4.60;99.90
19152;DHT22;9708;53.114;9.388;2024-01-30T04:00:47;4.60;99.90
19152;DHT22;9708;53.114;9.388;2024-01-30T04:03:14;4.60;99.90
19152;DHT22;9708;53.114;9.388;2024-01-30T04:05:43;4.20;99.90
19152;DHT22;9708;53.114;9.388;2024-01-30T04:08:10;3.70;99.90
19152;DHT22;9708;53.114;9.388;2024-01-30T04:10:37;3.60;99.90
19152;DHT22;9708;53.114;9.388;2024-01-30T04:13:04;3.40;99.90
19152;DHT22;9708;53.114;9.388;2024-01-30T04:15:31;3.10;99.90
19152;DHT22;9708;53.114;9.388;2024-01-30T04:17:58;2.80;99.90
19152;DHT22;9708;53.114;9.388;2024-01-30T04:20:25;2.80;99.90
19152;DHT22;9708;53.114;9.388;2024-01-30T04:22:53;3.60;99.90
19152;DHT22;9708;53.114;9.388;2024-01-30T04:25:20;3.90;99.90
19152;DHT22;9708;53.114;9.388;2024-01-30T04:27:47;4.20;99.90
19152;DHT22;9708;53.114;9.388;2024-01-30T04:30:14;4.40;99.90
19152;DHT22;9708;53.114;9.388;2024-01-30T04:32:41;4.50;99.90
19152;DHT22;9708;53.114;9.388;2024-01-30T04:35:08;4.50;99.90
19152;DHT22;9708;53.114;9.388;2024-01-30T04:37:35;4.50;99.90
19152;DHT22;9708;53.114;9.388;2024-01-30T04:40:04;4.60;99.90
19152;DHT22;9708;53.114;9.388;2024-01-30T04:42:31;4.60;99.90
19152;DHT22;9708;53.114;9.388;2024-01-30T04:44:58;4.70;99.90
19152;DHT22;9708;53.114;9.388;2024-01-30T04:47:25;4.70;99.90
19152;DHT22;9708;53.114;9.388;2024-01-30T04:49:52;4.70;99.90
19152;DHT22;9708;53.114;9.388;2024-01-30T04:52:19;4.70;99.90
19152;DHT22;9708;53.114;9.388;2024-01-30T04:54:46;4.80;99.90
19152;DHT22;9708;53.114;9.388;2024-01-30T04:57:14;4.90;99.90
19152;DHT22;9708;53.114;9.388;2024-01-30T04:59:41;4.90;99.90
19152;DHT22;9708;53.114;9.388;2024-01-30T05:02:08;4.90;99.90
19152;DHT22;9708;53.114;9.388;2024-01-30T05:04:34;5.00;99.90
19152;DHT22;9708;53.114;9.388;2024-01-30T05:07:01;5.10;99.90
19152;DHT22;9708;53.114;9.388;2024-01-30T05:09:28;5.10;99.90
19152;DHT22;9708;53.114;9.388;2024-01-30T05:11:55;5.10;99.90
19152;DHT22;9708;53.114;9.388;2024-01-30T05:14:23;5.10;99.90
19152;DHT22;9708;53.114;9.388;2024-01-30T05:16:50;5.10;99.90
19152;DHT22;9708;53.114;9.388;2024-01-30T05:19:17;5.20;99.90
19152;DHT22;9708;53.114;9.388;2024-01-30T05:21:44;5.20;99.90
19152;DHT22;9708;53.114;9.388;2024-01-30T05:24:11;5.30;99.90
19152;DHT22;9708;53.114;9.388;2024-01-30T05:26:38;5.30;99.90
19152;DHT22;9708;53.114;9.388;2024-01-30T05:29:05;5.30;99.90
19152;DHT22;9708;53.114;9.388;2024-01-30T05:31:34;5.40;99.90
19152;DHT22;9708;53.114;9.388;2024-01-30T05:34:01;5.50;99.90
19152;DHT22;9708;53.114;9.388;2024-01-30T05:36:28;5.50;99.90
19152;DHT22;9708;53.114;9.388;2024-01-30T05:38:56;5.50;99.90
19152;DHT22;9708;53.114;9.388;2024-01-30T05:41:23;5.50;99.90
19152;DHT22;9708;53.114;9.388;2024-01-30T05:43:49;5.50;99.90
19152;DHT22;9708;53.114;9.388;2024-01-30T05:46:16;5.60;99.90
19152;DHT22;9708;53.114;9.388;2024-01-30T05:48:45;5.60;99.90
19152;DHT22;9708;53.114;9.388;2024-01-30T05:51:11;5.60;99.90
19152;DHT22;9708;53.114;9.388;2024-01-30T05:53:38;5.60;99.90
19152;DHT22;9708;53.114;9.388;2024-01-30T05:56:06;5.60;99.90
19152;DHT22;9708;53.114;9.388;2024-01-30T05:58:33;5.60;99.90
19152;DHT22;9708;53.114;9.388;2024-01-30T06:01:00;5.60;99.90
19152;DHT22;9708;53.114;9.388;2024-01-30T06:03:27;5.70;99.90
19152;DHT22;9708;53.114;9.388;2024-01-30T06:05:55;5.70;99.90
19152;DHT22;9708;53.114;9.388;2024-01-30T06:08:22;5.60;99.90
19152;DHT22;9708;53.114;9.388;2024-01-30T06:10:49;5.70;99.90
19152;DHT22;9708;53.114;9.388;2024-01-30T06:13:16;5.60;99.90
19152;DHT22;9708;53.114;9.388;2024-01-30T06:15:43;5.60;99.90
19152;DHT22;9708;53.114;9.388;2024-01-30T06:18:09;5.60;99.90
19152;DHT22;9708;53.114;9.388;2024-01-30T06:20:36;5.60;99.90
19152;DHT22;9708;53.114;9.388;2024-01-30T06:23:05;5.60;99.90
19152;DHT22;9708;53.114;9.388;2024-01-30T06:25:31;5.60;99.90
19152;DHT22;9708;53.114;9.388;2024-01-30T06:27:58;5.60;99.90
19152;DHT22;9708;53.114;9.388;2024-01-30T06:30:25;5.60;99.90
19152;DHT22;9708;53.114;9.388;2024-01-30T06:32:52;5.60;99.90
19152;DHT22;9708;53.114;9.388;2024-01-30T06:35:19;5.60;99.90
19152;DHT22;9708;53.114;9.388;2024-01-30T06:37:47;5.60;99.90
19152;DHT22;9708;53.114;9.388;2024-01-30T06:40:15;5.60;99.90
19152;DHT22;9708;53.114;9.388;2024-01-30T06:42:42;5.50;99.90
19152;DHT22;9708;53.114;9.388;2024-01-30T06:45:09;5.50;99.90
19152;DHT22;9708;53.114;9.388;2024-01-30T06:47:36;5.60;99.90
19152;DHT22;9708;53.114;9.388;2024-01-30T06:50:04;5.60;99.90
19152;DHT22;9708;53.114;9.388;2024-01-30T06:52:30;5.60;99.90
19152;DHT22;9708;53.114;9.388;2024-01-30T06:54:57;5.60;99.90
19152;DHT22;9708;53.114;9.388;2024-01-30T06:57:26;5.60;99.90
19152;DHT22;9708;53.114;9.388;2024-01-30T06:59:56;5.50;99.90
19152;DHT22;9708;53.114;9.388;2024-01-30T07:02:23;5.50;99.90
19152;DHT22;9708;53.114;9.388;2024-01-30T07:04:50;5.50;99.90
19152;DHT22;9708;53.114;9.388;2024-01-30T07:07:17;5.60;99.90
19152;DHT22;9708;53.114;9.388;2024-01-30T07:09:44;5.60;99.90
19152;DHT22;9708;53.114;9.388;2024-01-30T07:12:13;5.60;99.90
19152;DHT22;9708;53.114;9.388;2024-01-30T07:14:41;5.70;99.90
19152;DHT22;9708;53.114;9.388;2024-01-30T07:17:08;5.70;99.90
19152;DHT22;9708;53.114;9.388;2024-01-30T07:19:35;5.70;99.90
19152;DHT22;9708;53.114;9.388;2024-01-30T07:22:01;5.70;99.90
19152;DHT22;9708;53.114;9.388;2024-01-30T07:24:28;5.70;99.90
19152;DHT22;9708;53.114;9.388;2024-01-30T07:26:55;5.80;99.90
19152;DHT22;9708;53.114;9.388;2024-01-30T07:29:22;5.80;99.90
19152;DHT22;9708;53.114;9.388;2024-01-30T07:31:50;5.80;99.90
19152;DHT22;9708;53.114;9.388;2024-01-30T07:34:17;5.80;99.90
19152;DHT22;9708;53.114;9.388;2024-01-30T07:36:44;5.80;99.90
19152;DHT22;9708;53.114;9.388;2024-01-30T07:39:12;5.80;99.90
19152;DHT22;9708;53.114;9.388;2024-01-30T07:41:39;5.90;99.90
19152;DHT22;9708;53.114;9.388;2024-01-30T07:44:06;5.90;99.90
19152;DHT22;9708;53.114;9.388;2024-01-30T07:46:33;6.00;99.90
19152;DHT22;9708;53.114;9.388;2024-01-30T07:49:01;6.00;99.90
19152;DHT22;9708;53.114;9.388;2024-01-30T07:51:28;6.10;99.90
19152;DHT22;9708;53.114;9.388;2024-01-30T07:53:57;6.10;99.90
19152;DHT22;9708;53.114;9.388;2024-01-30T07:56:24;6.20;99.90
19152;DHT22;9708;53.114;9.388;2024-01-30T07:58:51;6.20;99.90
19152;DHT22;9708;53.114;9.388;2024-01-30T08:01:19;6.30;99.90
19152;DHT22;9708;53.114;9.388;2024-01-30T08:03:45;6.30;99.90
19152;DHT22;9708;53.114;9.388;2024-01-30T08:06:14;6.30;99.90
19152;DHT22;9708;53.114;9.388;2024-01-30T08:08:41;6.30;99.90
19152;DHT22;9708;53.114;9.388;2024-01-30T08:11:07;6.40;99.90
19152;DHT22;9708;53.114;9.388;2024-01-30T08:13:34;6.40;99.90
19152;DHT22;9708;53.114;9.388;2024-01-30T08:16:01;6.40;99.90
19152;DHT22;9708;53.114;9.388;2024-01-30T08:18:28;6.50;99.90
19152;DHT22;9708;53.114;9.388;2024-01-30T08:20:55;6.50;99.90
19152;DHT22;9708;53.114;9.388;2024-01-30T08:23:23;6.50;99.90
19152;DHT22;9708;53.114;9.388;2024-01-30T08:25:50;6.60;99.90
19152;DHT22;9708;53.114;9.388;2024-01-30T08:28:17;6.60;99.90
19152;DHT22;9708;53.114;9.388;2024-01-30T08:30:44;6.60;99.90
19152;DHT22;9708;53.114;9.388;2024-01-30T08:33:11;6.70;99.90
19152;DHT22;9708;53.114;9.388;2024-01-30T08:35:38;6.70;99.90
19152;DHT22;9708;53.114;9.388;2024-01-30T08:38:04;6.70;99.90
19152;DHT22;9708;53.114;9.388;2024-01-30T08:40:33;6.80;99.90
19152;DHT22;9708;53.114;9.388;2024-01-30T08:43:00;6.90;99.90
19152;DHT22;9708;53.114;9.388;2024-01-30T08:45:27;7.00;99.90
19152;DHT22;9708;53.114;9.388;2024-01-30T08:47:54;7.00;99.90
19152;DHT22;9708;53.114;9.388;2024-01-30T08:50:21;7.00;99.90
19152;DHT22;9708;53.114;9.388;2024-01-30T08:52:48;7.10;99.90
19152;DHT22;9708;53.114;9.388;2024-01-30T08:55:15;7.10;99.90
19152;DHT22;9708;53.114;9.388;2024-01-30T08:57:43;7.10;99.90
19152;DHT22;9708;53.114;9.388;2024-01-30T09:00:11;7.20;99.90
19152;DHT22;9708;53.114;9.388;2024-01-30T09:02:38;7.20;99.90
19152;DHT22;9708;53.114;9.388;2024-01-30T09:05:05;7.40;99.90
19152;DHT22;9708;53.114;9.388;2024-01-30T09:07:32;7.30;99.90
19152;DHT22;9708;53.114;9.388;2024-01-30T09:09:59;7.50;99.90
19152;DHT22;9708;53.114;9.388;2024-01-30T09:12:26;7.60;99.90
19152;DHT22;9708;53.114;9.388;2024-01-30T09:14:54;7.60;99.90
19152;DHT22;9708;53.114;9.388;2024-01-30T09:17:21;7.70;99.90
19152;DHT22;9708;53.114;9.388;2024-01-30T09:19:47;7.70;99.90
19152;DHT22;9708;53.114;9.388;2024-01-30T09:22:14;7.90;99.90
19152;DHT22;9708;53.114;9.388;2024-01-30T09:24:41;8.00;99.90
19152;DHT22;9708;53.114;9.388;2024-01-30T09:27:08;8.00;99.90
19152;DHT22;9708;53.114;9.388;2024-01-30T09:29:35;8.10;99.90
19152;DHT22;9708;53.114;9.388;2024-01-30T09:32:04;8.10;99.90
19152;DHT22;9708;53.114;9.388;2024-01-30T09:34:31;8.10;99.90
19152;DHT22;9708;53.114;9.388;2024-01-30T09:36:58;8.20;99.90
19152;DHT22;9708;53.114;9.388;2024-01-30T09:39:26;8.30;99.90
19152;DHT22;9708;53.114;9.388;2024-01-30T09:42:00;8.40;99.90
19152;DHT22;9708;53.114;9.388;2024-01-30T09:44:29;8.50;99.90
19152;DHT22;9708;53.114;9.388;2024-01-30T09:46:56;8.60;99.90
19152;DHT22;9708;53.114;9.388;2024-01-30T09:49:31;8.70;99.90
19152;DHT22;9708;53.114;9.388;2024-01-30T09:51:58;8.90;99.90
19152;DHT22;9708;53.114;9.388;2024-01-30T09:54:25;9.10;99.90
19152;DHT22;9708;53.114;9.388;2024-01-30T09:56:52;9.30;99.90
19152;DHT22;9708;53.114;9.388;2024-01-30T09:59:19;9.30;99.90
19152;DHT22;9708;53.114;9.388;2024-01-30T10:01:46;9.40;99.90
19152;DHT22;9708;53.114;9.388;2024-01-30T10:04:13;9.50;99.90
19152;DHT22;9708;53.114;9.388;2024-01-30T10:06:42;9.30;99.90
19152;DHT22;9708;53.114;9.388;2024-01-30T10:09:08;9.30;99.90
19152;DHT22;9708;53.114;9.388;2024-01-30T10:11:36;9.40;99.90
19152;DHT22;9708;53.114;9.388;2024-01-30T10:14:03;9.70;99.90
19152;DHT22;9708;53.114;9.388;2024-01-30T10:16:30;9.60;99.90
19152;DHT22;9708;53.114;9.388;2024-01-30T10:18:57;9.60;99.90
19152;DHT22;9708;53.114;9.388;2024-01-30T10:21:24;9.60;99.90
19152;DHT22;9708;53.114;9.388;2024-01-30T10:23:52;9.70;99.90
19152;DHT22;9708;53.114;9.388;2024-01-30T10:26:19;9.80;99.90
19152;DHT22;9708;53.114;9.388;2024-01-30T10:28:48;9.90;99.90
19152;DHT22;9708;53.114;9.388;2024-01-30T10:31:17;9.90;99.90
19152;DHT22;9708;53.114;9.388;2024-01-30T10:33:44;9.90;99.90
19152;DHT22;9708;53.114;9.388;2024-01-30T10:36:13;9.90;99.90
19152;DHT22;9708;53.114;9.388;2024-01-30T10:38:42;9.90;99.90
19152;DHT22;9708;53.114;9.388;2024-01-30T10:41:11;10.00;99.90
19152;DHT22;9708;53.114;9.388;2024-01-30T10:43:41;9.90;99.90
19152;DHT22;9708;53.114;9.388;2024-01-30T10:46:11;9.90;99.90
19152;DHT22;9708;53.114;9.388;2024-01-30T10:48:42;9.90;99.90
19152;DHT22;9708;53.114;9.388;2024-01-30T10:51:11;9.90;99.90
19152;DHT22;9708;53.114;9.388;2024-01-30T10:53:39;9.90;99.90
19152;DHT22;9708;53.114;9.388;2024-01-30T10:56:06;10.00;99.90
19152;DHT22;9708;53.114;9.388;2024-01-30T10:58:36;9.90;99.90
19152;DHT22;9708;53.114;9.388;2024-01-30T11:01:03;9.90;99.90
19152;DHT22;9708;53.114;9.388;2024-01-30T11:03:31;9.90;99.90
19152;DHT22;9708;53.114;9.388;2024-01-30T11:06:00;9.90;99.90
19152;DHT22;9708;53.114;9.388;2024-01-30T11:08:27;9.90;99.90
19152;DHT22;9708;53.114;9.388;2024-01-30T11:10:56;9.90;99.90
19152;DHT22;9708;53.114;9.388;2024-01-30T11:13:27;10.00;99.90
19152;DHT22;9708;53.114;9.388;2024-01-30T11:16:00;10.00;99.90
19152;DHT22;9708;53.114;9.388;2024-01-30T11:18:29;10.00;99.90
19152;DHT22;9708;53.114;9.388;2024-01-30T11:20:56;10.10;99.90
19152;DHT22;9708;53.114;9.388;2024-01-30T11:23:23;10.20;99.90
19152;DHT22;9708;53.114;9.388;2024-01-30T11:25:52;10.30;99.90
19152;DHT22;9708;53.114;9.388;2024-01-30T11:28:21;10.30;99.90
19152;DHT22;9708;53.114;9.388;2024-01-30T11:30:49;10.40;99.90
19152;DHT22;9708;53.114;9.388;2024-01-30T11:33:29;10.50;99.90
19152;DHT22;9708;53.114;9.388;2024-01-30T11:35:58;10.70;99.90
19152;DHT22;9708;53.114;9.388;2024-01-30T11:38:26;10.90;99.90
19152;DHT22;9708;53.114;9.388;2024-01-30T11:40:54;11.40;99.90
19152;DHT22;9708;53.114;9.388;2024-01-30T11:43:21;11.20;99.90
19152;DHT22;9708;53.114;9.388;2024-01-30T11:45:49;11.10;99.90
19152;DHT22;9708;53.114;9.388;2024-01-30T11:48:17;11.10;99.90
19152;DHT22;9708;53.114;9.388;2024-01-30T11:50:44;11.10;99.90
19152;DHT22;9708;53.114;9.388;2024-01-30T11:53:11;11.20;99.90
19152;DHT22;9708;53.114;9.388;2024-01-30T11:55:38;11.20;99.90
19152;DHT22;9708;53.114;9.388;2024-01-30T11:58:05;11.30;99.90
19152;DHT22;9708;53.114;9.388;2024-01-30T12:00:32;11.40;99.90
19152;DHT22;9708;53.114;9.388;2024-01-30T12:02:59;11.10;99.90
19152;DHT22;9708;53.114;9.388;2024-01-30T12:05:28;10.90;99.90
19152;DHT22;9708;53.114;9.388;2024-01-30T12:07:55;10.80;99.90
19152;DHT22;9708;53.114;9.388;2024-01-30T12:10:24;11.00;99.90
19152;DHT22;9708;53.114;9.388;2024-01-30T12:12:52;11.10;99.90
19152;DHT22;9708;53.114;9.388;2024-01-30T12:15:21;11.00;99.90
19152;DHT22;9708;53.114;9.388;2024-01-30T12:17:48;11.00;99.90
19152;DHT22;9708;53.114;9.388;2024-01-30T12:20:18;10.90;99.90
19152;DHT22;9708;53.114;9.388;2024-01-30T12:22:47;10.90;99.90
19152;DHT22;9708;53.114;9.388;2024-01-30T12:25:15;10.90;99.90
19152;DHT22;9708;53.114;9.388;2024-01-30T12:27:43;10.90;99.90
19152;DHT22;9708;53.114;9.388;2024-01-30T12:30:11;10.90;99.90
19152;DHT22;9708;53.114;9.388;2024-01-30T12:32:40;10.90;99.90
19152;DHT22;9708;53.114;9.388;2024-01-30T12:35:07;10.80;99.90
19152;DHT22;9708;53.114;9.388;2024-01-30T12:37:35;10.80;99.90
19152;DHT22;9708;53.114;9.388;2024-01-30T12:40:04;10.80;99.90
19152;DHT22;9708;53.114;9.388;2024-01-30T12:42:31;10.70;99.90
19152;DHT22;9708;53.114;9.388;2024-01-30T12:44:58;10.70;99.90
19152;DHT22;9708;53.114;9.388;2024-01-30T12:47:25;10.70;99.90
19152;DHT22;9708;53.114;9.388;2024-01-30T12:49:52;10.60;99.90
19152;DHT22;9708;53.114;9.388;2024-01-30T12:52:20;10.60;99.90
19152;DHT22;9708;53.114;9.388;2024-01-30T12:54:47;10.60;99.90
19152;DHT22;9708;53.114;9.388;2024-01-30T12:57:15;10.60;99.90
19152;DHT22;9708;53.114;9.388;2024-01-30T12:59:43;10.60;99.90
19152;DHT22;9708;53.114;9.388;2024-01-30T13:02:10;10.60;99.90
19152;DHT22;9708;53.114;9.388;2024-01-30T13:04:37;10.60;99.90
19152;DHT22;9708;53.114;9.388;2024-01-30T13:07:04;10.60;99.90
19152;DHT22;9708;53.114;9.388;2024-01-30T13:09:31;10.60;99.90
19152;DHT22;9708;53.114;9.388;2024-01-30T13:11:58;10.70;99.90
19152;DHT22;9708;53.114;9.388;2024-01-30T13:14:26;10.70;99.90
19152;DHT22;9708;53.114;9.388;2024-01-30T13:16:53;10.70;99.90
19152;DHT22;9708;53.114;9.388;2024-01-30T13:19:20;10.60;99.90
19152;DHT22;9708;53.114;9.388;2024-01-30T13:21:47;10.60;99.90
19152;DHT22;9708;53.114;9.388;2024-01-30T13:24:14;10.60;99.90
19152;DHT22;9708;53.114;9.388;2024-01-30T13:26:42;10.50;99.90
19152;DHT22;9708;53.114;9.388;2024-01-30T13:29:09;10.60;99.90
19152;DHT22;9708;53.114;9.388;2024-01-30T13:31:37;10.60;99.90
19152;DHT22;9708;53.114;9.388;2024-01-30T13:34:05;10.60;99.90
19152;DHT22;9708;53.114;9.388;2024-01-30T13:36:33;10.60;99.90
19152;DHT22;9708;53.114;9.388;2024-01-30T13:38:59;10.60;99.90
19152;DHT22;9708;53.114;9.388;2024-01-30T13:41:26;10.50;99.90
19152;DHT22;9708;53.114;9.388;2024-01-30T13:43:54;10.50;99.90
19152;DHT22;9708;53.114;9.388;2024-01-30T13:46:20;10.60;99.90
19152;DHT22;9708;53.114;9.388;2024-01-30T13:48:49;10.50;99.90
19152;DHT22;9708;53.114;9.388;2024-01-30T13:51:15;10.50;99.90
19152;DHT22;9708;53.114;9.388;2024-01-30T13:53:42;10.50;99.90
19152;DHT22;9708;53.114;9.388;2024-01-30T13:56:09;10.60;99.90
19152;DHT22;9708;53.114;9.388;2024-01-30T13:58:36;10.60;99.90
19152;DHT22;9708;53.114;9.388;2024-01-30T14:01:03;10.60;99.90
19152;DHT22;9708;53.114;9.388;2024-01-30T14:03:30;10.60;99.90
19152;DHT22;9708;53.114;9.388;2024-01-30T14:05:59;10.60;99.90
19152;DHT22;9708;53.114;9.388;2024-01-30T14:08:26;10.50;99.90
19152;DHT22;9708;53.114;9.388;2024-01-30T14:10:53;10.50;99.90
19152;DHT22;9708;53.114;9.388;2024-01-30T14:13:21;10.50;99.90
19152;DHT22;9708;53.114;9.388;2024-01-30T14:15:50;10.60;99.90
19152;DHT22;9708;53.114;9.388;2024-01-30T14:18:17;10.60;99.90
19152;DHT22;9708;53.114;9.388;2024-01-30T14:20:44;10.60;99.90
19152;DHT22;9708;53.114;9.388;2024-01-30T14:23:12;10.60;99.90
19152;DHT22;9708;53.114;9.388;2024-01-30T14:25:39;10.60;99.90
19152;DHT22;9708;53.114;9.388;2024-01-30T14:28:06;10.70;99.90
19152;DHT22;9708;53.114;9.388;2024-01-30T14:30:33;10.60;99.90
19152;DHT22;9708;53.114;9.388;2024-01-30T14:33:01;10.60;99.90
19152;DHT22;9708;53.114;9.388;2024-01-30T14:35:28;10.60;99.90
19152;DHT22;9708;53.114;9.388;2024-01-30T14:37:55;10.60;99.90
19152;DHT22;9708;53.114;9.388;2024-01-30T14:40:23;10.70;99.90
19152;DHT22;9708;53.114;9.388;2024-01-30T14:42:50;10.70;99.90
19152;DHT22;9708;53.114;9.388;2024-01-30T14:45:17;10.70;99.90
19152;DHT22;9708;53.114;9.388;2024-01-30T14:47:44;10.70;99.90
19152;DHT22;9708;53.114;9.388;2024-01-30T14:50:11;10.70;99.90
19152;DHT22;9708;53.114;9.388;2024-01-30T14:52:38;10.80;99.90
19152;DHT22;9708;53.114;9.388;2024-01-30T14:55:06;10.80;99.90
19152;DHT22;9708;53.114;9.388;2024-01-30T14:57:34;10.80;99.90
19152;DHT22;9708;53.114;9.388;2024-01-30T15:00:04;10.90;99.90
19152;DHT22;9708;53.114;9.388;2024-01-30T15:02:31;10.80;99.90
19152;DHT22;9708;53.114;9.388;2024-01-30T15:04:58;10.90;99.90
19152;DHT22;9708;53.114;9.388;2024-01-30T15:07:25;10.90;99.90
19152;DHT22;9708;53.114;9.388;2024-01-30T15:09:53;10.90;99.90
19152;DHT22;9708;53.114;9.388;2024-01-30T15:12:19;10.90;99.90
19152;DHT22;9708;53.114;9.388;2024-01-30T15:14:48;10.90;99.90
19152;DHT22;9708;53.114;9.388;2024-01-30T15:17:17;10.90;99.90
19152;DHT22;9708;53.114;9.388;2024-01-30T15:19:43;10.90;99.90
19152;DHT22;9708;53.114;9.388;2024-01-30T15:22:10;11.00;99.90
19152;DHT22;9708;53.114;9.388;2024-01-30T15:24:37;11.00;99.90
19152;DHT22;9708;53.114;9.388;2024-01-30T15:27:04;11.00;99.90
19152;DHT22;9708;53.114;9.388;2024-01-30T15:29:31;10.90;99.90
19152;DHT22;9708;53.114;9.388;2024-01-30T15:31:59;10.80;99.90
19152;DHT22;9708;53.114;9.388;2024-01-30T15:34:26;10.70;99.90
19152;DHT22;9708;53.114;9.388;2024-01-30T15:36:53;10.70;99.90
19152;DHT22;9708;53.114;9.388;2024-01-30T15:39:20;10.60;99.90
19152;DHT22;9708;53.114;9.388;2024-01-30T15:41:47;10.70;99.90
19152;DHT22;9708;53.114;9.388;2024-01-30T15:44:13;10.70;99.90
19152;DHT22;9708;53.114;9.388;2024-01-30T15:46:40;10.70;99.90
19152;DHT22;9708;53.114;9.388;2024-01-30T15:49:08;10.60;99.90
19152;DHT22;9708;53.114;9.388;2024-01-30T15:51:35;10.60;99.90
19152;DHT22;9708;53.114;9.388;2024-01-30T15:54:02;10.70;99.90
19152;DHT22;9708;53.114;9.388;2024-01-30T15:56:29;10.70;99.90